Time;durP1;ratioP1;P1;durP2;ratioP2;P2;SDS_P1;SDS_P2;PMS_P1;PMS_P2;Temp;Humidity;BMP_temperature;BMP_pressure;BME280_temperature;BME280_humidity;BME280_pressure;Samples;Min_cycle;Max_cycle;Signal;HPM_P1;HPM_P2
2022/05/24 00:00:35;;;;;;;16.80;9.80;;;12.60;99.90;;;;;;4996655;28;20415;-92
2022/05/24 00:03:01;;;;;;;20.77;10.90;;;12.10;99.90;;;;;;4981074;28;20045;-89
2022/05/24 00:05:29;;;;;;;17.88;10.25;;;12.20;99.90;;;;;;5012289;28;20046;-89
2022/05/24 00:07:55;;;;;;;15.48;10.18;;;12.20;99.90;;;;;;5015053;28;20057;-91
2022/05/24 00:10:28;;;;;;;14.43;9.45;;;12.40;99.90;;;;;;5014574;28;20041;-90
2022/05/24 00:12:55;;;;;;;15.23;9.60;;;12.10;99.90;;;;;;4985298;28;20053;-89
2022/05/24 00:15:27;;;;;;;12.68;9.23;;;12.10;99.90;;;;;;4983670;28;20046;-88
2022/05/24 00:18:03;;;;;;;17.02;9.02;;;12.30;99.90;;;;;;5000323;28;20049;-88
2022/05/24 00:20:40;;;;;;;12.98;8.38;;;12.10;99.90;;;;;;5000476;28;20049;-88
2022/05/24 00:23:07;;;;;;;13.10;7.88;;;12.10;99.90;;;;;;4983838;28;20046;-88
2022/05/24 00:25:35;;;;;;;12.27;7.60;;;12.10;99.90;;;;;;4983585;28;20046;-89
2022/05/24 00:28:02;;;;;;;14.15;7.50;;;12.20;99.90;;;;;;4999820;28;20053;-89
2022/05/24 00:30:28;;;;;;;14.35;7.88;;;12.30;99.90;;;;;;5000595;28;20084;-89
2022/05/24 00:32:57;;;;;;;14.27;8.05;;;12.90;99.90;;;;;;4999834;28;20046;-89
2022/05/24 00:35:23;;;;;;;14.95;8.35;;;12.30;99.90;;;;;;5000116;28;20096;-89
2022/05/24 00:37:50;;;;;;;12.93;8.20;;;12.30;99.90;;;;;;4983143;28;20054;-88
2022/05/24 00:40:39;;;;;;;13.55;8.40;;;13.00;99.90;;;;;;4983513;28;20053;-89
2022/05/24 00:43:12;;;;;;;14.30;8.13;;;12.40;99.90;;;;;;4983506;28;20107;-88
2022/05/24 00:45:43;;;;;;;17.27;7.75;;;12.80;99.90;;;;;;4999614;28;20425;-92
2022/05/24 00:48:37;;;;;;;15.23;8.50;;;12.80;99.90;;;;;;4983562;28;20042;-88
2022/05/24 00:51:05;;;;;;;14.85;8.65;;;12.50;99.90;;;;;;4999509;28;20045;-88
2022/05/24 00:53:39;;;;;;;11.10;7.40;;;12.70;99.90;;;;;;4983938;28;20486;-93
2022/05/24 00:56:18;;;;;;;15.18;8.23;;;13.20;99.90;;;;;;4984130;28;20042;-88
2022/05/24 00:58:52;;;;;;;15.80;9.48;;;12.50;99.90;;;;;;5000328;28;20053;-91
2022/05/24 01:01:28;;;;;;;13.68;8.75;;;12.60;99.90;;;;;;4983536;28;20180;-93
2022/05/24 01:03:53;;;;;;;17.52;9.57;;;12.70;99.90;;;;;;4999112;28;20046;-93
2022/05/24 01:06:19;;;;;;;15.15;9.68;;;12.70;99.90;;;;;;4983384;28;20545;-93
2022/05/24 01:08:45;;;;;;;15.50;9.27;;;12.60;99.90;;;;;;4983473;28;20165;-89
2022/05/24 01:11:13;;;;;;;15.88;9.65;;;12.50;99.90;;;;;;4982922;28;20136;-89
2022/05/24 01:13:40;;;;;;;20.10;10.25;;;12.70;99.90;;;;;;4998935;28;20045;-91
2022/05/24 01:16:06;;;;;;;16.15;9.93;;;12.70;99.90;;;;;;4982762;28;20104;-89
2022/05/24 01:18:32;;;;;;;16.55;10.18;;;12.70;99.90;;;;;;4998535;28;20057;-93
2022/05/24 01:21:07;;;;;;;15.45;9.93;;;13.20;99.90;;;;;;4982891;28;20050;-89
2022/05/24 01:23:54;;;;;;;18.23;10.48;;;12.70;99.90;;;;;;4998901;28;20136;-92
2022/05/24 01:26:31;;;;;;;16.48;10.85;;;12.60;99.90;;;;;;4998613;28;20053;-92
2022/05/24 01:29:01;;;;;;;19.30;11.32;;;12.70;99.90;;;;;;4998766;28;20519;-89
2022/05/24 01:36:09;;;;;;;19.25;11.38;;;12.70;99.90;;;;;;5001718;28;20034;-89
2022/05/24 01:37:07;;;;;;;23.85;12.95;;;12.90;99.90;;;;;;4958709;28;20055;-90
2022/05/24 01:39:33;;;;;;;22.27;12.55;;;12.70;99.90;;;;;;4958885;28;20109;-91
2022/05/24 01:41:59;;;;;;;23.48;12.80;;;12.70;99.90;;;;;;4974826;28;20159;-89
2022/05/24 01:44:52;;;;;;;20.90;12.55;;;12.80;99.90;;;;;;4958613;28;20046;-89
2022/05/24 01:47:19;;;;;;;23.25;12.77;;;13.00;99.90;;;;;;4958702;28;20132;-90
2022/05/24 01:50:01;;;;;;;26.27;12.85;;;13.30;99.90;;;;;;4942655;28;20133;-89
2022/05/24 01:52:38;;;;;;;23.80;12.70;;;12.70;99.90;;;;;;4974750;28;20438;-89
2022/05/24 01:55:08;;;;;;;27.00;12.98;;;13.00;99.90;;;;;;4958408;28;20117;-91
2022/05/24 01:57:38;;;;;;;26.17;13.18;;;12.90;99.90;;;;;;4958381;28;20042;-90
2022/05/24 02:00:07;;;;;;;21.83;13.02;;;12.90;99.90;;;;;;4958288;28;20047;-90
2022/05/24 02:02:32;;;;;;;25.48;13.23;;;12.90;99.90;;;;;;4958454;28;20158;-89
2022/05/24 02:04:59;;;;;;;23.02;13.38;;;12.90;99.90;;;;;;4958641;28;20051;-90
2022/05/24 02:07:26;;;;;;;25.23;13.65;;;13.30;99.90;;;;;;4958519;28;20046;-89
2022/05/24 02:09:56;;;;;;;23.58;13.85;;;12.90;99.90;;;;;;4958370;28;20053;-89
2022/05/24 02:12:44;;;;;;;25.95;14.60;;;12.90;99.90;;;;;;4958205;28;20042;-91
2022/05/24 02:15:12;;;;;;;26.90;14.93;;;13.00;99.90;;;;;;4995018;28;20398;-90
2022/05/24 02:17:40;;;;;;;32.13;16.23;;;13.00;99.90;;;;;;4982268;28;20129;-91
2022/05/24 02:20:13;;;;;;;29.98;16.95;;;13.00;99.90;;;;;;4997861;28;20046;-89
2022/05/24 02:22:40;;;;;;;36.65;19.48;;;13.00;99.90;;;;;;4997762;28;20104;-89
2022/05/24 02:25:15;;;;;;;33.13;18.05;;;13.40;99.90;;;;;;4997866;28;20052;-92
2022/05/24 02:27:44;;;;;;;35.67;18.08;;;13.50;99.90;;;;;;4997514;28;20046;-93
2022/05/24 02:30:12;;;;;;;35.22;18.73;;;13.10;99.90;;;;;;4997460;28;20089;-93
2022/05/24 02:32:37;;;;;;;39.90;19.85;;;13.10;99.90;;;;;;4997849;28;20561;-90
2022/05/24 02:35:03;;;;;;;40.90;20.50;;;13.10;99.90;;;;;;4981026;28;20092;-92
2022/05/24 02:37:29;;;;;;;41.20;20.13;;;13.10;99.90;;;;;;4980062;28;20083;-89
2022/05/24 02:42:39;;;;;;;37.70;19.20;;;13.20;99.90;;;;;;4997283;28;20056;-92
2022/05/24 02:45:05;;;;;;;36.17;19.75;;;13.40;99.90;;;;;;4981512;28;20049;-90
2022/05/24 02:47:31;;;;;;;43.30;20.85;;;13.20;99.90;;;;;;4997296;28;20097;-90
2022/05/24 02:49:56;;;;;;;39.28;20.48;;;13.20;99.90;;;;;;4980994;28;20088;-91
2022/05/24 02:52:22;;;;;;;37.63;19.23;;;13.20;99.90;;;;;;4981068;28;20050;-91
2022/05/24 02:54:47;;;;;;;41.47;21.63;;;13.50;99.90;;;;;;4981031;28;20072;-91
2022/05/24 02:57:13;;;;;;;37.00;20.67;;;13.20;99.90;;;;;;4997103;28;20046;-88
2022/05/24 02:59:39;;;;;;;37.47;20.95;;;13.20;99.90;;;;;;4981121;28;20061;-90
2022/05/24 03:02:05;;;;;;;39.03;21.00;;;13.20;99.90;;;;;;4996704;28;20049;-89
2022/05/24 03:04:32;;;;;;;38.35;21.65;;;13.20;99.90;;;;;;4996750;28;20052;-89
2022/05/24 03:09:42;;;;;;;34.20;19.50;;;13.30;99.90;;;;;;4996839;28;20111;-89
2022/05/24 03:14:55;;;;;;;34.22;19.23;;;13.40;99.90;;;;;;4996866;28;20103;-88
2022/05/24 03:17:22;;;;;;;29.98;17.88;;;13.40;99.90;;;;;;4980554;28;20397;-88
2022/05/24 03:19:49;;;;;;;25.77;16.30;;;13.90;99.90;;;;;;4980153;28;20042;-89
2022/05/24 03:22:15;;;;;;;17.58;12.52;;;13.50;99.90;;;;;;4996500;28;20049;-89
2022/05/24 03:24:40;;;;;;;16.77;10.70;;;13.60;99.90;;;;;;4996614;28;20199;-89
2022/05/24 03:27:13;;;;;;;18.27;9.73;;;13.40;99.90;;;;;;4996513;28;20049;-88
2022/05/24 03:29:44;;;;;;;15.23;9.65;;;13.40;99.90;;;;;;4980603;28;20057;-89
2022/05/24 03:32:13;;;;;;;14.55;9.50;;;13.40;99.90;;;;;;4996598;28;20397;-89
2022/05/24 03:34:41;;;;;;;18.25;10.00;;;13.50;99.90;;;;;;4980621;28;20045;-89
2022/05/24 03:37:07;;;;;;;18.45;10.20;;;13.30;99.90;;;;;;4979995;28;20061;-90
2022/05/24 03:39:34;;;;;;;19.98;11.32;;;13.20;99.90;;;;;;4980451;28;20049;-91
2022/05/24 03:42:02;;;;;;;18.92;11.02;;;13.40;99.90;;;;;;4996642;28;20497;-90
2022/05/24 03:44:28;;;;;;;22.73;12.73;;;13.20;99.90;;;;;;4979943;28;20054;-90
2022/05/24 03:46:54;;;;;;;37.95;13.70;;;13.20;99.90;;;;;;4980382;28;20085;-90
2022/05/24 03:49:25;;;;;;;23.88;14.05;;;13.10;99.90;;;;;;5002783;28;20046;-89
2022/05/24 03:51:51;;;;;;;25.30;14.15;;;13.10;99.90;;;;;;4992621;28;20042;-89
2022/05/24 03:54:16;;;;;;;25.35;12.57;;;13.20;99.90;;;;;;4985694;28;20053;-89
2022/05/24 03:57:59;;;;;;;19.38;11.70;;;13.30;99.90;;;;;;4984232;28;20458;-89
2022/05/24 03:59:28;;;;;;;20.45;11.75;;;13.10;99.90;;;;;;5000376;28;20049;-89
2022/05/24 04:01:54;;;;;;;18.42;12.07;;;13.10;99.90;;;;;;5000370;28;20054;-90
2022/05/24 04:04:20;;;;;;;19.63;12.07;;;13.10;99.90;;;;;;4983926;28;20434;-89
2022/05/24 04:06:46;;;;;;;20.00;12.48;;;13.60;99.90;;;;;;4984386;28;20049;-89
2022/05/24 04:09:12;;;;;;;20.77;12.85;;;13.10;99.90;;;;;;4983878;28;20053;-89
2022/05/24 04:11:37;;;;;;;21.10;13.25;;;13.10;99.90;;;;;;5000128;28;20069;-89
2022/05/24 04:14:03;;;;;;;23.48;12.70;;;13.10;99.90;;;;;;4983831;28;20046;-89
2022/05/24 04:16:29;;;;;;;21.27;13.23;;;13.40;99.90;;;;;;4999953;28;20049;-89
2022/05/24 04:18:55;;;;;;;22.15;11.18;;;13.10;99.90;;;;;;4983569;28;20046;-88
2022/05/24 04:21:20;;;;;;;19.50;12.10;;;13.20;99.90;;;;;;4999868;28;20088;-89
2022/05/24 04:23:46;;;;;;;18.48;11.60;;;13.20;99.90;;;;;;4983665;28;20172;-89
2022/05/24 04:26:12;;;;;;;18.85;10.75;;;13.30;99.90;;;;;;4999871;28;20136;-89
2022/05/24 04:28:38;;;;;;;18.10;10.18;;;13.10;99.90;;;;;;5000190;28;20068;-89
2022/05/24 04:31:04;;;;;;;19.02;11.23;;;13.10;99.90;;;;;;4983632;28;20056;-89
2022/05/24 04:33:30;;;;;;;20.17;11.23;;;13.40;99.90;;;;;;4983472;28;20133;-89
2022/05/24 04:35:56;;;;;;;18.95;11.10;;;13.20;99.90;;;;;;4999555;28;20104;-89
2022/05/24 04:38:23;;;;;;;18.67;11.23;;;13.60;99.90;;;;;;4983616;28;20053;-89
2022/05/24 04:43:33;;;;;;;22.45;13.07;;;13.50;99.90;;;;;;4999479;28;20049;-89
2022/05/24 04:45:59;;;;;;;23.55;12.55;;;13.20;99.90;;;;;;4999313;28;20096;-89
2022/05/24 04:48:30;;;;;;;25.38;13.10;;;13.20;99.90;;;;;;4999246;28;20548;-89
2022/05/24 04:50:57;;;;;;;25.75;12.50;;;13.20;99.90;;;;;;4982979;28;20042;-89
2022/05/24 04:53:24;;;;;;;24.45;12.40;;;13.20;99.90;;;;;;4983203;28;20057;-88
2022/05/24 04:55:50;;;;;;;27.33;13.82;;;13.50;99.90;;;;;;4983102;28;20564;-88
2022/05/24 04:58:17;;;;;;;24.48;14.52;;;13.30;99.90;;;;;;4982894;28;20085;-88
2022/05/24 05:00:44;;;;;;;29.88;15.60;;;13.30;99.90;;;;;;4983013;28;20381;-88
2022/05/24 05:03:11;;;;;;;29.17;16.02;;;13.20;99.90;;;;;;4999780;28;20485;-89
2022/05/24 05:05:48;;;;;;;27.45;15.60;;;13.30;99.90;;;;;;4999125;28;20104;-88
2022/05/24 05:08:14;;;;;;;33.70;16.80;;;13.20;99.90;;;;;;4998806;28;20053;-88
2022/05/24 05:10:40;;;;;;;41.70;20.40;;;13.20;99.90;;;;;;4982725;28;20037;-89
2022/05/24 05:13:06;;;;;;;40.80;21.65;;;13.20;99.90;;;;;;4999059;28;20042;-88
2022/05/24 05:15:37;;;;;;;42.55;21.23;;;13.30;99.90;;;;;;4982496;28;20072;-88
2022/05/24 05:18:14;;;;;;;45.55;20.38;;;13.20;99.90;;;;;;4999158;28;20058;-88
2022/05/24 05:20:41;;;;;;;41.38;19.45;;;13.10;99.90;;;;;;4998692;28;20037;-89
2022/05/24 05:23:14;;;;;;;38.40;19.92;;;13.10;99.90;;;;;;4982660;28;20054;-88
2022/05/24 05:25:42;;;;;;;42.25;20.63;;;13.10;99.90;;;;;;4998510;28;20084;-89
2022/05/24 05:28:08;;;;;;;42.97;20.10;;;13.20;99.90;;;;;;4982455;28;20046;-88
2022/05/24 05:33:18;;;;;;;38.13;18.00;;;13.20;99.90;;;;;;5000208;28;20121;-88
2022/05/24 05:35:46;;;;;;;39.40;18.45;;;13.10;99.90;;;;;;4998895;28;20037;-88
2022/05/24 05:38:13;;;;;;;35.53;16.58;;;13.20;99.90;;;;;;4993024;28;20058;-88
2022/05/24 05:40:39;;;;;;;34.47;17.35;;;13.00;99.90;;;;;;4978660;28;20049;-88
2022/05/24 05:43:05;;;;;;;32.63;17.02;;;13.00;99.90;;;;;;4994946;28;20052;-87
2022/05/24 05:45:31;;;;;;;37.33;17.60;;;13.00;99.90;;;;;;4995043;28;20038;-88
2022/05/24 05:47:56;;;;;;;32.72;16.20;;;13.00;99.90;;;;;;4978851;28;20050;-88
2022/05/24 05:50:22;;;;;;;30.95;15.60;;;13.30;99.90;;;;;;4978453;28;20053;-87
2022/05/24 05:52:50;;;;;;;30.15;15.35;;;13.00;99.90;;;;;;4979201;28;20058;-88
2022/05/24 05:55:16;;;;;;;24.02;13.35;;;13.00;99.90;;;;;;4995275;28;20050;-89
2022/05/24 05:57:41;;;;;;;24.48;11.73;;;13.00;99.90;;;;;;4979021;28;20108;-88
2022/05/24 06:00:08;;;;;;;22.92;10.82;;;13.10;99.90;;;;;;4995095;28;20042;-88
2022/05/24 06:02:35;;;;;;;14.02;7.22;;;13.20;99.90;;;;;;4978543;28;20049;-87
2022/05/24 06:05:07;;;;;;;15.77;7.28;;;13.20;99.90;;;;;;4994377;28;20050;-88
2022/05/24 06:07:32;;;;;;;9.43;5.50;;;13.30;99.90;;;;;;4996552;28;20042;-88
2022/05/24 06:09:58;;;;;;;14.10;6.15;;;13.30;99.90;;;;;;4986108;28;20050;-88
2022/05/24 06:12:24;;;;;;;11.85;6.38;;;13.70;99.90;;;;;;4977923;28;20053;-88
2022/05/24 06:14:50;;;;;;;10.88;7.13;;;13.40;99.90;;;;;;4978536;28;20050;-88
2022/05/24 06:17:16;;;;;;;12.07;6.20;;;13.50;99.90;;;;;;4978956;28;20046;-88
2022/05/24 06:19:43;;;;;;;12.18;6.07;;;13.50;99.90;;;;;;4994278;28;20103;-88
2022/05/24 06:22:10;;;;;;;8.73;5.63;;;13.50;99.90;;;;;;4979085;28;20384;-88
2022/05/24 06:24:37;;;;;;;10.43;5.25;;;13.50;99.90;;;;;;4995689;28;20080;-88
2022/05/24 06:27:03;;;;;;;9.63;5.70;;;13.60;99.90;;;;;;4996950;28;20046;-88
2022/05/24 06:29:33;;;;;;;11.30;6.00;;;13.60;99.90;;;;;;4980680;28;20082;-88
2022/05/24 06:32:01;;;;;;;10.45;5.43;;;13.60;99.90;;;;;;4978803;28;20046;-88
2022/05/24 06:34:30;;;;;;;13.10;6.15;;;13.60;99.90;;;;;;4994209;28;20153;-89
2022/05/24 06:36:56;;;;;;;10.13;5.95;;;13.60;99.90;;;;;;4977973;28;20054;-89
2022/05/24 06:39:23;;;;;;;9.57;5.85;;;13.60;99.90;;;;;;4977986;28;20057;-88
2022/05/24 06:41:48;;;;;;;11.63;6.18;;;13.60;99.90;;;;;;4978073;28;20050;-89
2022/05/24 06:44:14;;;;;;;12.88;6.40;;;13.70;99.90;;;;;;4993816;28;20056;-89
2022/05/24 06:46:40;;;;;;;11.15;6.60;;;14.00;99.90;;;;;;4977866;28;20097;-89
2022/05/24 06:49:11;;;;;;;13.48;6.47;;;13.80;99.90;;;;;;4977611;28;20162;-88
2022/05/24 06:51:37;;;;;;;12.70;6.45;;;13.90;99.90;;;;;;4993836;28;20042;-88
2022/05/24 06:54:03;;;;;;;11.40;6.57;;;13.90;99.90;;;;;;4993763;28;20441;-88
2022/05/24 06:56:29;;;;;;;14.00;6.97;;;13.90;99.90;;;;;;4977084;28;20483;-89
2022/05/24 07:04:24;;;;;;;14.73;7.97;;;13.80;99.90;;;;;;4993405;28;20050;-89
2022/05/24 07:06:49;;;;;;;14.25;7.15;;;13.70;99.90;;;;;;4977389;28;20093;-89
2022/05/24 07:09:15;;;;;;;15.55;7.30;;;13.60;99.90;;;;;;4993830;28;20125;-88
2022/05/24 07:11:41;;;;;;;10.15;5.47;;;13.70;99.90;;;;;;4993891;28;20042;-89
2022/05/24 07:14:06;;;;;;;8.45;4.68;;;13.60;99.90;;;;;;4993556;28;20054;-88
2022/05/24 07:16:32;;;;;;;12.57;5.10;;;13.70;99.90;;;;;;4977419;28;20054;-89
2022/05/24 07:19:01;;;;;;;9.63;5.00;;;13.70;99.90;;;;;;4994770;28;20513;-89
2022/05/24 07:21:26;;;;;;;9.98;4.80;;;13.70;99.90;;;;;;4977382;28;20046;-90
2022/05/24 07:23:52;;;;;;;12.93;4.70;;;13.70;99.90;;;;;;4976986;28;20436;-90
2022/05/24 07:26:21;;;;;;;10.05;5.70;;;13.70;99.90;;;;;;4977282;28;20134;-89
2022/05/24 07:28:47;;;;;;;11.70;5.50;;;13.70;99.90;;;;;;4977192;28;20494;-89
2022/05/24 07:31:13;;;;;;;7.50;4.78;;;13.70;99.90;;;;;;4993477;28;20042;-89
2022/05/24 07:33:40;;;;;;;12.82;4.45;;;14.20;99.90;;;;;;4994020;28;20058;-89
2022/05/24 07:36:07;;;;;;;8.38;4.07;;;13.70;99.90;;;;;;4977717;28;20136;-90
2022/05/24 07:38:33;;;;;;;9.73;4.13;;;13.80;99.90;;;;;;4993127;28;20112;-88
2022/05/24 07:46:29;;;;;;;9.13;3.53;;;13.90;99.90;;;;;;4993069;28;20137;-89
2022/05/24 07:48:56;;;;;;;10.70;4.22;;;13.80;99.90;;;;;;4977947;28;20042;-90
2022/05/24 07:51:22;;;;;;;8.48;4.07;;;13.90;99.90;;;;;;4978868;28;20057;-91
2022/05/24 07:53:48;;;;;;;8.40;3.75;;;14.00;99.90;;;;;;4978059;28;20078;-91
2022/05/24 07:56:18;;;;;;;11.32;3.72;;;14.30;99.90;;;;;;4977865;28;20088;-92
2022/05/24 07:58:44;;;;;;;7.38;3.42;;;14.20;99.90;;;;;;4978483;28;20593;-91
2022/05/24 08:01:11;;;;;;;5.07;3.28;;;14.20;99.90;;;;;;4977165;28;20406;-90
2022/05/24 08:03:38;;;;;;;9.23;3.10;;;14.20;99.90;;;;;;4977233;28;20134;-90
2022/05/24 08:06:05;;;;;;;7.07;2.72;;;14.70;99.90;;;;;;4976912;28;20042;-91
2022/05/24 08:08:31;;;;;;;5.82;2.90;;;14.10;99.90;;;;;;4977669;28;20046;-90
2022/05/24 08:10:57;;;;;;;6.55;3.17;;;14.10;99.90;;;;;;4977236;28;20049;-89
2022/05/24 08:13:23;;;;;;;10.90;5.50;;;14.10;99.90;;;;;;4993452;28;20050;-90
2022/05/24 08:15:53;;;;;;;10.95;6.55;;;14.00;99.90;;;;;;4978245;28;20057;-90
2022/05/24 08:18:21;;;;;;;15.50;7.00;;;13.70;99.90;;;;;;4993700;28;20043;-91
2022/05/24 08:20:47;;;;;;;16.98;9.27;;;13.30;99.90;;;;;;4978346;28;20086;-92
2022/05/24 08:23:14;;;;;;;15.88;10.02;;;13.00;99.90;;;;;;4980126;28;20049;-92
2022/05/24 08:25:40;;;;;;;11.90;6.82;;;12.80;99.90;;;;;;4995419;28;20049;-92
2022/05/24 08:28:07;;;;;;;7.47;3.40;;;12.60;99.90;;;;;;5000817;28;20054;-90
2022/05/24 08:30:35;;;;;;;5.63;2.60;;;12.50;99.90;;;;;;4979334;28;20068;-91
2022/05/24 08:33:04;;;;;;;6.25;2.70;;;12.60;99.90;;;;;;4992922;28;20050;-90
2022/05/24 08:35:35;;;;;;;4.18;1.63;;;12.10;99.90;;;;;;4996024;28;20050;-91
2022/05/24 08:38:03;;;;;;;4.07;1.33;;;12.40;99.90;;;;;;4980658;28;20059;-91
2022/05/24 08:40:30;;;;;;;4.15;1.65;;;12.00;99.90;;;;;;4980445;28;20066;-91
2022/05/24 08:42:58;;;;;;;3.63;1.40;;;12.40;99.90;;;;;;4981736;28;20449;-91
2022/05/24 08:48:26;;;;;;;4.00;1.70;;;12.20;99.90;;;;;;4997859;28;20153;-91
2022/05/24 08:51:12;;;;;;;4.32;1.92;;;12.40;99.90;;;;;;4997046;28;20046;-91
2022/05/24 08:53:42;;;;;;;4.35;1.67;;;13.20;99.90;;;;;;4980501;28;20096;-90
2022/05/24 08:56:14;;;;;;;2.58;1.50;;;12.90;99.90;;;;;;4981327;28;20046;-90
2022/05/24 08:58:48;;;;;;;5.18;1.73;;;13.10;99.90;;;;;;4981214;28;20386;-90
2022/05/24 09:01:26;;;;;;;3.58;1.90;;;12.60;99.90;;;;;;4997487;28;20377;-90
2022/05/24 09:03:51;;;;;;;4.22;2.08;;;12.70;99.90;;;;;;4979730;28;20046;-91
2022/05/24 09:06:35;;;;;;;3.22;1.75;;;12.80;99.90;;;;;;4979726;28;20057;-90
2022/05/24 09:09:07;;;;;;;5.07;2.17;;;12.90;99.90;;;;;;4980007;28;20047;-90
2022/05/24 09:12:19;;;;;;;6.53;2.30;;;13.20;99.90;;;;;;4981104;28;20120;-91
2022/05/24 09:15:02;;;;;;;5.30;3.03;;;13.40;99.90;;;;;;4980786;28;20046;-90
2022/05/24 09:17:47;;;;;;;3.95;3.13;;;13.60;99.90;;;;;;4980519;28;20055;-90
2022/05/24 09:20:26;;;;;;;7.07;3.15;;;13.80;99.90;;;;;;4980436;28;20042;-91
2022/05/24 09:23:01;;;;;;;8.43;4.45;;;13.70;99.90;;;;;;4980500;28;20141;-91
2022/05/24 09:25:27;;;;;;;7.78;4.00;;;13.70;99.90;;;;;;4979862;28;20100;-90
2022/05/24 09:27:55;;;;;;;6.68;3.95;;;13.70;99.90;;;;;;4979554;28;20046;-89
2022/05/24 09:30:29;;;;;;;6.43;3.60;;;13.80;99.90;;;;;;4979229;28;20482;-89
2022/05/24 09:33:23;;;;;;;6.38;4.00;;;13.90;99.90;;;;;;4979526;28;20555;-89
2022/05/24 09:35:58;;;;;;;7.45;3.25;;;14.30;99.90;;;;;;4979809;28;20058;-90
2022/05/24 09:38:36;;;;;;;6.68;2.50;;;14.90;99.90;;;;;;4979625;28;20057;-90
2022/05/24 09:41:17;;;;;;;4.10;1.95;;;15.40;99.90;;;;;;4979229;28;20053;-89
2022/05/24 09:43:57;;;;;;;6.05;2.47;;;15.30;99.90;;;;;;4979513;28;20129;-90
2022/05/24 09:46:26;;;;;;;6.95;2.35;;;15.20;99.90;;;;;;4979233;28;20085;-91
2022/05/24 09:49:15;;;;;;;3.38;1.63;;;15.00;99.90;;;;;;4996362;28;20050;-89
2022/05/24 09:51:42;;;;;;;3.17;1.23;;;14.60;99.90;;;;;;4979026;28;20092;-89
2022/05/24 09:54:22;;;;;;;4.05;1.30;;;14.30;99.90;;;;;;4978878;28;20073;-89
2022/05/24 09:57:06;;;;;;;4.60;1.70;;;14.00;99.90;;;;;;4995067;28;20042;-88
2022/05/24 09:59:33;;;;;;;3.50;2.22;;;13.80;99.90;;;;;;4978584;28;20050;-89
2022/05/24 10:02:00;;;;;;;5.82;2.50;;;14.10;99.90;;;;;;4995279;28;20482;-88
2022/05/24 10:04:46;;;;;;;5.97;3.17;;;;;;;;;;4978554;28;20048;-88
2022/05/24 10:07:26;;;;;;;5.70;3.08;;;14.20;99.90;;;;;;4994975;28;20046;-88
2022/05/24 10:10:07;;;;;;;5.22;2.42;;;14.50;99.90;;;;;;4979954;28;20482;-89
2022/05/24 10:13:18;;;;;;;4.40;2.28;;;14.90;99.90;;;;;;4979585;28;20053;-88
2022/05/24 10:16:02;;;;;;;4.63;2.70;;;14.80;99.90;;;;;;4939203;29;20086;-88
2022/05/24 10:18:50;;;;;;;3.42;2.20;;;14.70;99.90;;;;;;4939906;29;20047;-89
2022/05/24 10:21:25;;;;;;;3.72;2.00;;;14.40;99.90;;;;;;4938905;29;20082;-89
2022/05/24 10:24:22;;;;;;;5.05;2.88;;;14.30;99.90;;;;;;4938886;29;20142;-88
2022/05/24 10:27:21;;;;;;;5.18;1.98;;;14.20;99.90;;;;;;4904286;29;20130;-88
2022/05/24 10:30:23;;;;;;;4.40;2.20;;;14.10;99.90;;;;;;4919731;29;20052;-89
2022/05/24 10:40:04;;;;;;;3.00;1.50;;;13.70;99.90;;;;;;4809090;29;20502;-90
2022/05/24 10:42:30;;;;;;;6.15;2.10;;;13.70;99.90;;;;;;4828160;29;20077;-90
2022/05/24 10:45:17;;;;;;;4.85;2.55;;;13.70;99.90;;;;;;4830393;29;20491;-89
2022/05/24 10:47:50;;;;;;;5.00;2.05;;;13.90;99.90;;;;;;4794759;29;20137;-89
2022/05/24 10:50:23;;;;;;;3.78;1.92;;;14.10;99.90;;;;;;4794345;29;20534;-89
2022/05/24 10:53:02;;;;;;;3.58;1.30;;;14.30;99.90;;;;;;4824199;29;20426;-88
2022/05/24 10:55:41;;;;;;;3.17;1.17;;;14.70;99.90;;;;;;4810431;29;20066;-88
2022/05/24 10:58:11;;;;;;;3.28;1.05;;;14.70;99.90;;;;;;4808132;29;20145;-88
2022/05/24 11:00:45;;;;;;;3.97;1.27;;;14.90;99.90;;;;;;4808172;29;20050;-88
2022/05/24 11:03:17;;;;;;;2.20;1.00;;;15.00;99.90;;;;;;4830775;29;20050;-88
2022/05/24 11:05:58;;;;;;;3.00;1.02;;;15.40;99.90;;;;;;4860084;29;20503;-89
2022/05/24 11:08:43;;;;;;;3.22;1.08;;;15.60;99.90;;;;;;4859879;29;20153;-88
2022/05/24 11:11:34;;;;;;;2.90;1.20;;;15.70;99.90;;;;;;4918965;29;20048;-88
2022/05/24 11:14:04;;;;;;;4.63;1.30;;;15.40;99.90;;;;;;4939714;28;20062;-88
2022/05/24 11:16:46;;;;;;;2.92;1.10;;;15.30;99.90;;;;;;4993223;28;20081;-89
2022/05/24 11:19:23;;;;;;;8.93;1.38;;;15.20;99.90;;;;;;4993456;28;20093;-87
2022/05/24 11:22:16;;;;;;;3.20;1.23;;;15.10;99.90;;;;;;4977175;28;20042;-88
2022/05/24 11:24:46;;;;;;;2.40;1.20;;;15.30;99.90;;;;;;4995040;28;20049;-88
2022/05/24 11:27:15;;;;;;;4.00;1.13;;;15.60;99.90;;;;;;4993285;28;20454;-87
2022/05/24 11:30:32;;;;;;;2.50;1.15;;;15.80;99.90;;;;;;4993269;28;20137;-87
2022/05/24 11:33:03;;;;;;;2.97;1.20;;;16.00;99.90;;;;;;4994566;28;20042;-88
2022/05/24 11:35:35;;;;;;;3.42;1.23;;;16.60;99.90;;;;;;4993368;28;20043;-87
2022/05/24 11:38:16;;;;;;;3.63;1.52;;;17.10;99.90;;;;;;4995209;28;20058;-88
2022/05/24 11:40:54;;;;;;;3.78;1.00;;;17.10;99.90;;;;;;4978583;28;20050;-87
2022/05/24 11:43:35;;;;;;;3.78;0.85;;;17.20;99.90;;;;;;4993571;28;20049;-87
2022/05/24 11:46:33;;;;;;;3.78;1.00;;;17.30;99.90;;;;;;4993984;28;20047;-89
2022/05/24 11:49:00;;;;;;;4.45;1.00;;;16.90;99.90;;;;;;4938155;29;20051;-89
2022/05/24 11:51:36;;;;;;;4.07;1.40;;;16.40;99.90;;;;;;4938303;29;20066;-89
2022/05/24 11:54:04;;;;;;;3.47;0.90;;;15.80;99.90;;;;;;4938350;29;20047;-89
2022/05/24 11:56:31;;;;;;;3.60;1.08;;;15.20;99.90;;;;;;4922613;29;20134;-88
2022/05/24 11:59:11;;;;;;;2.65;1.17;;;14.60;99.90;;;;;;4922167;29;20051;-90
2022/05/24 12:01:39;;;;;;;4.90;1.60;;;14.60;99.90;;;;;;4937762;29;20047;-89
2022/05/24 12:10:02;;;;;;;4.70;1.95;;;14.60;99.90;;;;;;4938805;29;20106;-90
2022/05/24 12:12:55;;;;;;;4.03;1.77;;;14.60;99.90;;;;;;4925702;29;20163;-91
2022/05/24 12:15:43;;;;;;;5.10;1.70;;;14.80;99.90;;;;;;4885277;29;20057;-91
2022/05/24 12:18:11;;;;;;;5.60;1.88;;;15.00;99.90;;;;;;4886771;29;20090;-89
2022/05/24 12:20:43;;;;;;;4.32;2.10;;;15.20;99.90;;;;;;4885396;29;20532;-88
2022/05/24 12:23:09;;;;;;;5.63;2.25;;;15.80;99.90;;;;;;4901377;29;20365;-88
2022/05/24 12:25:59;;;;;;;6.03;2.28;;;16.30;99.90;;;;;;4903918;29;20106;-89
2022/05/24 12:28:37;;;;;;;6.30;1.90;;;16.60;99.90;;;;;;4904246;29;20439;-88
2022/05/24 12:31:18;;;;;;;5.47;2.20;;;16.20;99.90;;;;;;4904387;29;20044;-88
2022/05/24 12:33:54;;;;;;;4.65;1.63;;;16.10;99.90;;;;;;4888037;29;20075;-87
2022/05/24 12:36:35;;;;;;;3.40;1.65;;;16.30;99.90;;;;;;4903879;29;20095;-88
2022/05/24 12:39:11;;;;;;;3.63;1.90;;;16.20;99.90;;;;;;4888292;29;20100;-89
2022/05/24 12:41:40;;;;;;;3.40;1.70;;;16.30;99.90;;;;;;4903808;29;20502;-86
2022/05/24 12:44:49;;;;;;;3.05;1.73;;;16.00;99.90;;;;;;4888053;29;20451;-87
2022/05/24 12:47:19;;;;;;;3.55;1.60;;;15.70;99.90;;;;;;4885179;29;20068;-87
2022/05/24 12:49:53;;;;;;;6.60;1.80;;;15.80;99.90;;;;;;4869326;29;20511;-88
2022/05/24 12:52:24;;;;;;;4.25;1.85;;;15.70;99.90;;;;;;4912091;29;20051;-87
2022/05/24 12:54:55;;;;;;;3.22;1.60;;;15.50;99.90;;;;;;4941754;29;20066;-87
2022/05/24 12:57:38;;;;;;;5.47;2.47;;;15.30;99.90;;;;;;4941108;29;20061;-87
2022/05/24 13:00:08;;;;;;;6.22;3.25;;;15.10;99.90;;;;;;4941389;29;20047;-88
2022/05/24 13:02:43;;;;;;;6.82;3.78;;;15.10;99.90;;;;;;4946183;29;20470;-88
2022/05/24 13:05:37;;;;;;;8.93;3.90;;;15.10;99.90;;;;;;4943802;28;20070;-88
2022/05/24 13:08:03;;;;;;;7.30;3.95;;;15.30;99.90;;;;;;4941206;29;20091;-90
2022/05/24 13:10:33;;;;;;;7.32;3.85;;;15.10;99.90;;;;;;4941047;29;20158;-88
2022/05/24 13:13:00;;;;;;;6.65;3.20;;;15.10;99.90;;;;;;4942378;29;20154;-88
2022/05/24 13:15:54;;;;;;;9.65;3.75;;;15.10;99.90;;;;;;4949815;29;20047;-88
2022/05/24 13:18:28;;;;;;;6.47;4.13;;;14.90;99.90;;;;;;4875994;29;20067;-87
2022/05/24 13:20:56;;;;;;;6.78;4.22;;;14.80;99.90;;;;;;4859869;29;20469;-87
2022/05/24 13:23:21;;;;;;;9.27;4.97;;;14.80;99.90;;;;;;4895654;29;20052;-87
2022/05/24 13:26:05;;;;;;;8.30;4.60;;;15.10;99.90;;;;;;4908436;29;20611;-89
2022/05/24 13:28:43;;;;;;;8.50;4.70;;;15.20;99.90;;;;;;4886851;29;20100;-86
2022/05/24 13:33:58;;;;;;;7.07;4.25;;;16.50;99.90;;;;;;4918633;29;20516;-86
2022/05/24 13:36:39;;;;;;;7.60;4.57;;;16.60;99.90;;;;;;4902597;29;20056;-86
2022/05/24 13:39:07;;;;;;;7.78;3.60;;;16.50;99.90;;;;;;4902607;29;20500;-87
2022/05/24 13:41:42;;;;;;;6.47;3.88;;;16.20;99.90;;;;;;4902593;29;20107;-87
2022/05/24 13:44:16;;;;;;;6.13;3.08;;;16.00;99.90;;;;;;4918433;29;20509;-87
2022/05/24 13:46:52;;;;;;;6.90;3.88;;;15.90;99.90;;;;;;4902838;29;20052;-88